Terminal Aerodrome Forecast
Issued by NWS

Home | Current Version | Previous Version | Text Only | Print | Product List | Glossary On
Versions: 1 2 3 4 5 6 7 8 9 10 11 12 13 14 15
000
FTUS41 KALY 272337
TAFPSF
TAF
KPSF 272337Z 2800/2824 32012G18KT P6SM VCSH BKN025 OVC035
      TEMPO 2800/2802 6SM -SHRA
     FM280200 32010G16KT P6SM VCSH SCT025 OVC035
      TEMPO 2802/2804 BKN025 OVC035
     FM280600 32007KT P6SM OVC035
     FM281300 33013G23KT P6SM BKN040
     FM282000 32012G20KT P6SM SCT040=

USA.gov is the U.S. government's official web portal to all federal, state and local government web resources and services.